sensor_id;sensor_type;location;lat;lon;timestamp;pressure;altitude;pressure_sealevel;temperature;humidity
6345;BME280;3205;42.666;23.264;2023-03-01T00:01:31;94794.25;;;6.38;100.00
6345;BME280;3205;42.666;23.264;2023-03-01T00:03:58;94784.13;;;6.32;100.00
6345;BME280;3205;42.666;23.264;2023-03-01T00:06:26;94785.13;;;6.36;100.00
6345;BME280;3205;42.666;23.264;2023-03-01T00:08:52;94773.81;;;6.35;100.00
6345;BME280;3205;42.666;23.264;2023-03-01T00:11:20;94772.53;;;6.46;100.00
6345;BME280;3205;42.666;23.264;2023-03-01T00:13:48;94778.72;;;6.50;100.00
6345;BME280;3205;42.666;23.264;2023-03-01T00:16:18;94771.28;;;6.44;100.00
6345;BME280;3205;42.666;23.264;2023-03-01T00:18:44;94771.50;;;6.34;100.00
6345;BME280;3205;42.666;23.264;2023-03-01T00:21:11;94768.16;;;6.42;100.00
6345;BME280;3205;42.666;23.264;2023-03-01T00:23:37;94762.13;;;6.41;100.00
6345;BME280;3205;42.666;23.264;2023-03-01T00:26:06;94759.94;;;6.35;100.00
6345;BME280;3205;42.666;23.264;2023-03-01T00:28:33;94753.81;;;6.26;100.00
6345;BME280;3205;42.666;23.264;2023-03-01T00:31:03;94742.03;;;6.37;100.00
6345;BME280;3205;42.666;23.264;2023-03-01T00:33:30;94745.72;;;6.36;100.00
6345;BME280;3205;42.666;23.264;2023-03-01T00:35:57;94747.88;;;6.34;100.00
6345;BME280;3205;42.666;23.264;2023-03-01T00:38:24;94749.56;;;6.30;100.00
6345;BME280;3205;42.666;23.264;2023-03-01T00:40:50;94748.63;;;6.34;100.00
6345;BME280;3205;42.666;23.264;2023-03-01T00:43:16;94745.13;;;6.39;100.00
6345;BME280;3205;42.666;23.264;2023-03-01T00:45:42;94743.09;;;6.36;100.00
6345;BME280;3205;42.666;23.264;2023-03-01T00:48:08;94754.63;;;6.26;100.00
6345;BME280;3205;42.666;23.264;2023-03-01T00:50:35;94737.59;;;6.24;100.00
6345;BME280;3205;42.666;23.264;2023-03-01T00:53:01;94735.25;;;6.22;100.00
6345;BME280;3205;42.666;23.264;2023-03-01T00:55:27;94743.19;;;6.31;100.00
6345;BME280;3205;42.666;23.264;2023-03-01T00:57:53;94742.44;;;6.30;100.00
6345;BME280;3205;42.666;23.264;2023-03-01T01:00:20;94733.69;;;6.35;100.00
6345;BME280;3205;42.666;23.264;2023-03-01T01:02:46;94745.94;;;6.26;100.00
6345;BME280;3205;42.666;23.264;2023-03-01T01:05:13;94746.00;;;6.34;100.00
6345;BME280;3205;42.666;23.264;2023-03-01T01:07:40;94746.69;;;6.40;100.00
6345;BME280;3205;42.666;23.264;2023-03-01T01:10:06;94752.53;;;6.37;100.00
6345;BME280;3205;42.666;23.264;2023-03-01T01:12:33;94743.63;;;6.24;100.00
6345;BME280;3205;42.666;23.264;2023-03-01T01:15:02;94747.09;;;6.33;100.00
6345;BME280;3205;42.666;23.264;2023-03-01T01:17:28;94744.00;;;6.31;100.00
6345;BME280;3205;42.666;23.264;2023-03-01T01:19:54;94742.81;;;6.37;100.00
6345;BME280;3205;42.666;23.264;2023-03-01T01:22:20;94751.16;;;6.39;100.00
6345;BME280;3205;42.666;23.264;2023-03-01T01:24:47;94753.09;;;6.47;100.00
6345;BME280;3205;42.666;23.264;2023-03-01T01:27:13;94746.94;;;6.30;100.00
6345;BME280;3205;42.666;23.264;2023-03-01T01:29:39;94746.13;;;6.29;100.00
6345;BME280;3205;42.666;23.264;2023-03-01T01:32:07;94754.06;;;6.38;100.00
6345;BME280;3205;42.666;23.264;2023-03-01T01:34:33;94758.69;;;6.32;100.00
6345;BME280;3205;42.666;23.264;2023-03-01T01:36:59;94762.75;;;6.25;100.00
6345;BME280;3205;42.666;23.264;2023-03-01T01:39:28;94760.81;;;6.30;100.00
6345;BME280;3205;42.666;23.264;2023-03-01T01:41:55;94768.50;;;6.27;100.00
6345;BME280;3205;42.666;23.264;2023-03-01T01:44:23;94770.06;;;6.28;100.00
6345;BME280;3205;42.666;23.264;2023-03-01T01:46:52;94771.19;;;6.35;100.00
6345;BME280;3205;42.666;23.264;2023-03-01T01:49:25;94767.38;;;6.41;100.00
6345;BME280;3205;42.666;23.264;2023-03-01T01:52:00;94767.75;;;6.48;100.00
6345;BME280;3205;42.666;23.264;2023-03-01T01:54:30;94763.88;;;6.46;100.00
6345;BME280;3205;42.666;23.264;2023-03-01T01:57:03;94761.53;;;6.44;100.00
6345;BME280;3205;42.666;23.264;2023-03-01T01:59:30;94761.53;;;6.44;100.00
6345;BME280;3205;42.666;23.264;2023-03-01T02:01:58;94762.75;;;6.38;100.00
6345;BME280;3205;42.666;23.264;2023-03-01T02:04:25;94746.38;;;6.19;100.00
6345;BME280;3205;42.666;23.264;2023-03-01T02:06:55;94754.97;;;6.33;100.00
6345;BME280;3205;42.666;23.264;2023-03-01T02:09:24;94748.25;;;6.27;100.00
6345;BME280;3205;42.666;23.264;2023-03-01T02:11:51;94752.94;;;6.30;100.00
6345;BME280;3205;42.666;23.264;2023-03-01T02:14:18;94738.94;;;6.21;100.00
6345;BME280;3205;42.666;23.264;2023-03-01T02:16:44;94728.47;;;6.21;100.00
6345;BME280;3205;42.666;23.264;2023-03-01T02:19:19;94740.06;;;6.20;100.00
6345;BME280;3205;42.666;23.264;2023-03-01T02:21:54;94725.94;;;6.16;100.00
6345;BME280;3205;42.666;23.264;2023-03-01T02:24:30;94742.38;;;6.22;100.00
6345;BME280;3205;42.666;23.264;2023-03-01T02:26:58;94745.47;;;6.24;100.00
6345;BME280;3205;42.666;23.264;2023-03-01T02:29:28;94741.69;;;6.16;100.00
6345;BME280;3205;42.666;23.264;2023-03-01T02:31:57;94733.53;;;6.18;100.00
6345;BME280;3205;42.666;23.264;2023-03-01T02:34:25;94739.63;;;6.27;100.00
6345;BME280;3205;42.666;23.264;2023-03-01T02:36:55;94746.94;;;6.30;100.00
6345;BME280;3205;42.666;23.264;2023-03-01T02:39:26;94746.44;;;6.28;100.00
6345;BME280;3205;42.666;23.264;2023-03-01T02:41:54;94750.44;;;6.25;100.00
6345;BME280;3205;42.666;23.264;2023-03-01T02:44:21;94755.97;;;6.24;100.00
6345;BME280;3205;42.666;23.264;2023-03-01T02:46:50;94747.81;;;6.25;100.00
6345;BME280;3205;42.666;23.264;2023-03-01T02:49:23;94742.84;;;6.24;100.00
6345;BME280;3205;42.666;23.264;2023-03-01T02:52:04;94740.38;;;6.27;100.00
6345;BME280;3205;42.666;23.264;2023-03-01T02:54:36;94732.06;;;6.25;100.00
6345;BME280;3205;42.666;23.264;2023-03-01T02:57:04;94734.50;;;6.22;100.00
6345;BME280;3205;42.666;23.264;2023-03-01T02:59:33;94740.75;;;6.12;100.00
6345;BME280;3205;42.666;23.264;2023-03-01T03:02:07;94738.88;;;6.13;100.00
6345;BME280;3205;42.666;23.264;2023-03-01T03:04:33;94739.56;;;6.18;100.00
6345;BME280;3205;42.666;23.264;2023-03-01T03:06:59;94739.19;;;6.11;100.00
6345;BME280;3205;42.666;23.264;2023-03-01T03:09:25;94734.31;;;6.18;100.00
6345;BME280;3205;42.666;23.264;2023-03-01T03:11:51;94731.25;;;6.03;100.00
6345;BME280;3205;42.666;23.264;2023-03-01T03:14:17;94744.19;;;5.99;100.00
6345;BME280;3205;42.666;23.264;2023-03-01T03:16:46;94755.13;;;6.01;100.00
6345;BME280;3205;42.666;23.264;2023-03-01T03:19:13;94738.31;;;6.02;100.00
6345;BME280;3205;42.666;23.264;2023-03-01T03:21:39;94744.38;;;5.89;100.00
6345;BME280;3205;42.666;23.264;2023-03-01T03:24:05;94728.66;;;5.89;100.00
6345;BME280;3205;42.666;23.264;2023-03-01T03:26:32;94733.69;;;5.86;100.00
6345;BME280;3205;42.666;23.264;2023-03-01T03:28:58;94733.41;;;5.88;100.00
6345;BME280;3205;42.666;23.264;2023-03-01T03:31:24;94746.88;;;5.94;100.00
6345;BME280;3205;42.666;23.264;2023-03-01T03:33:50;94735.56;;;5.86;100.00
6345;BME280;3205;42.666;23.264;2023-03-01T03:36:18;94725.25;;;5.89;100.00
6345;BME280;3205;42.666;23.264;2023-03-01T03:38:45;94736.31;;;5.86;100.00
6345;BME280;3205;42.666;23.264;2023-03-01T03:41:12;94737.19;;;5.82;100.00
6345;BME280;3205;42.666;23.264;2023-03-01T03:43:40;94737.00;;;5.78;100.00
6345;BME280;3205;42.666;23.264;2023-03-01T03:46:09;94739.72;;;5.73;100.00
6345;BME280;3205;42.666;23.264;2023-03-01T03:48:37;94737.66;;;5.70;100.00
6345;BME280;3205;42.666;23.264;2023-03-01T03:51:04;94737.84;;;5.74;100.00
6345;BME280;3205;42.666;23.264;2023-03-01T03:53:32;94741.19;;;5.66;100.00
6345;BME280;3205;42.666;23.264;2023-03-01T03:55:58;94735.94;;;5.66;100.00
6345;BME280;3205;42.666;23.264;2023-03-01T03:58:25;94722.72;;;5.71;100.00
6345;BME280;3205;42.666;23.264;2023-03-01T04:00:53;94727.97;;;5.71;100.00
6345;BME280;3205;42.666;23.264;2023-03-01T04:03:22;94720.81;;;5.76;100.00
6345;BME280;3205;42.666;23.264;2023-03-01T04:05:49;94723.22;;;5.86;100.00
6345;BME280;3205;42.666;23.264;2023-03-01T04:08:16;94727.84;;;5.76;100.00
6345;BME280;3205;42.666;23.264;2023-03-01T04:10:48;94733.50;;;5.83;100.00
6345;BME280;3205;42.666;23.264;2023-03-01T04:13:16;94736.94;;;5.83;100.00
6345;BME280;3205;42.666;23.264;2023-03-01T04:15:42;94736.31;;;5.73;100.00
6345;BME280;3205;42.666;23.264;2023-03-01T04:18:10;94732.63;;;5.74;100.00
6345;BME280;3205;42.666;23.264;2023-03-01T04:20:37;94744.00;;;5.69;100.00
6345;BME280;3205;42.666;23.264;2023-03-01T04:23:05;94735.94;;;5.66;100.00
6345;BME280;3205;42.666;23.264;2023-03-01T04:25:37;94739.13;;;5.63;100.00
6345;BME280;3205;42.666;23.264;2023-03-01T04:28:04;94736.91;;;5.56;100.00
6345;BME280;3205;42.666;23.264;2023-03-01T04:30:31;94736.25;;;5.51;100.00
6345;BME280;3205;42.666;23.264;2023-03-01T04:33:02;94734.78;;;5.58;100.00
6345;BME280;3205;42.666;23.264;2023-03-01T04:35:29;94733.13;;;5.62;100.00
6345;BME280;3205;42.666;23.264;2023-03-01T04:37:55;94724.09;;;5.68;100.00
6345;BME280;3205;42.666;23.264;2023-03-01T04:40:21;94723.09;;;5.64;100.00
6345;BME280;3205;42.666;23.264;2023-03-01T04:42:47;94723.50;;;5.71;100.00
6345;BME280;3205;42.666;23.264;2023-03-01T04:45:14;94741.94;;;5.66;100.00
6345;BME280;3205;42.666;23.264;2023-03-01T04:47:41;94722.34;;;5.64;100.00
6345;BME280;3205;42.666;23.264;2023-03-01T04:50:11;94726.41;;;5.70;100.00
6345;BME280;3205;42.666;23.264;2023-03-01T04:52:37;94712.81;;;5.68;100.00
6345;BME280;3205;42.666;23.264;2023-03-01T04:55:04;94722.34;;;5.64;100.00
6345;BME280;3205;42.666;23.264;2023-03-01T04:57:31;94718.16;;;5.63;100.00
6345;BME280;3205;42.666;23.264;2023-03-01T04:59:57;94718.84;;;5.68;100.00
6345;BME280;3205;42.666;23.264;2023-03-01T05:02:24;94716.59;;;5.75;100.00
6345;BME280;3205;42.666;23.264;2023-03-01T05:04:51;94720.59;;;5.73;100.00
6345;BME280;3205;42.666;23.264;2023-03-01T05:07:17;94726.97;;;5.67;100.00
6345;BME280;3205;42.666;23.264;2023-03-01T05:09:45;94720.09;;;5.71;100.00
6345;BME280;3205;42.666;23.264;2023-03-01T05:12:11;94730.59;;;5.71;100.00
6345;BME280;3205;42.666;23.264;2023-03-01T05:14:37;94730.59;;;5.71;100.00
6345;BME280;3205;42.666;23.264;2023-03-01T05:17:04;94726.81;;;5.77;100.00
6345;BME280;3205;42.666;23.264;2023-03-01T05:19:31;94733.63;;;5.78;100.00
6345;BME280;3205;42.666;23.264;2023-03-01T05:21:58;94739.34;;;5.80;100.00
6345;BME280;3205;42.666;23.264;2023-03-01T05:24:29;94743.09;;;5.74;100.00
6345;BME280;3205;42.666;23.264;2023-03-01T05:26:55;94730.78;;;5.74;100.00
6345;BME280;3205;42.666;23.264;2023-03-01T05:29:22;94733.69;;;5.73;100.00
6345;BME280;3205;42.666;23.264;2023-03-01T05:31:51;94735.72;;;5.76;100.00
6345;BME280;3205;42.666;23.264;2023-03-01T05:34:18;94722.44;;;5.72;100.00
6345;BME280;3205;42.666;23.264;2023-03-01T05:36:49;94735.19;;;5.79;100.00
6345;BME280;3205;42.666;23.264;2023-03-01T05:39:18;94733.03;;;5.81;100.00
6345;BME280;3205;42.666;23.264;2023-03-01T05:41:45;94730.69;;;5.79;100.00
6345;BME280;3205;42.666;23.264;2023-03-01T05:44:11;94738.34;;;5.76;100.00
6345;BME280;3205;42.666;23.264;2023-03-01T05:46:37;94738.16;;;5.72;100.00
6345;BME280;3205;42.666;23.264;2023-03-01T05:49:03;94733.22;;;5.71;100.00
6345;BME280;3205;42.666;23.264;2023-03-01T05:51:30;94738.06;;;5.77;100.00
6345;BME280;3205;42.666;23.264;2023-03-01T05:53:59;94747.00;;;5.89;100.00
6345;BME280;3205;42.666;23.264;2023-03-01T05:56:25;94751.25;;;5.99;100.00
6345;BME280;3205;42.666;23.264;2023-03-01T05:58:52;94760.00;;;6.08;100.00
6345;BME280;3205;42.666;23.264;2023-03-01T06:01:18;94767.94;;;6.16;100.00
6345;BME280;3205;42.666;23.264;2023-03-01T06:03:44;94776.41;;;6.13;100.00
6345;BME280;3205;42.666;23.264;2023-03-01T06:06:10;94769.88;;;6.11;100.00
6345;BME280;3205;42.666;23.264;2023-03-01T06:08:36;94775.38;;;6.01;100.00
6345;BME280;3205;42.666;23.264;2023-03-01T06:11:03;94778.94;;;6.18;100.00
6345;BME280;3205;42.666;23.264;2023-03-01T06:13:30;94775.63;;;6.13;100.00
6345;BME280;3205;42.666;23.264;2023-03-01T06:15:56;94776.31;;;6.18;100.00
6345;BME280;3205;42.666;23.264;2023-03-01T06:18:22;94785.44;;;6.21;100.00
6345;BME280;3205;42.666;23.264;2023-03-01T06:20:53;94783.66;;;6.30;100.00
6345;BME280;3205;42.666;23.264;2023-03-01T06:23:19;94793.97;;;6.26;100.00
6345;BME280;3205;42.666;23.264;2023-03-01T06:25:45;94792.53;;;6.20;100.00
6345;BME280;3205;42.666;23.264;2023-03-01T06:28:12;94785.38;;;6.34;100.00
6345;BME280;3205;42.666;23.264;2023-03-01T06:30:38;94786.00;;;6.31;100.00
6345;BME280;3205;42.666;23.264;2023-03-01T06:33:04;94790.19;;;6.19;100.00
6345;BME280;3205;42.666;23.264;2023-03-01T06:35:30;94793.38;;;6.29;100.00
6345;BME280;3205;42.666;23.264;2023-03-01T06:37:57;94789.34;;;6.45;100.00
6345;BME280;3205;42.666;23.264;2023-03-01T06:40:24;94793.97;;;6.26;100.00
6345;BME280;3205;42.666;23.264;2023-03-01T06:42:51;94797.69;;;6.25;100.00
6345;BME280;3205;42.666;23.264;2023-03-01T06:45:18;94781.69;;;6.35;100.00
6345;BME280;3205;42.666;23.264;2023-03-01T06:47:44;94793.56;;;6.33;100.00
6345;BME280;3205;42.666;23.264;2023-03-01T06:50:11;94814.69;;;6.14;100.00
6345;BME280;3205;42.666;23.264;2023-03-01T06:52:37;94797.78;;;6.20;100.00
6345;BME280;3205;42.666;23.264;2023-03-01T06:55:04;94790.75;;;6.29;100.00
6345;BME280;3205;42.666;23.264;2023-03-01T06:57:31;94793.53;;;6.46;100.00
6345;BME280;3205;42.666;23.264;2023-03-01T06:59:57;94795.34;;;6.59;100.00
6345;BME280;3205;42.666;23.264;2023-03-01T07:02:24;94799.88;;;6.67;100.00
6345;BME280;3205;42.666;23.264;2023-03-01T07:04:51;94797.25;;;6.67;100.00
6345;BME280;3205;42.666;23.264;2023-03-01T07:07:17;94800.22;;;6.52;100.00
6345;BME280;3205;42.666;23.264;2023-03-01T07:09:43;94801.19;;;6.56;100.00
6345;BME280;3205;42.666;23.264;2023-03-01T07:12:10;94802.78;;;6.65;100.00
6345;BME280;3205;42.666;23.264;2023-03-01T07:14:36;94793.53;;;6.68;100.00
6345;BME280;3205;42.666;23.264;2023-03-01T07:17:02;94802.63;;;6.84;100.00
6345;BME280;3205;42.666;23.264;2023-03-01T07:19:29;94811.19;;;6.89;100.00
6345;BME280;3205;42.666;23.264;2023-03-01T07:21:55;94809.94;;;6.87;100.00
6345;BME280;3205;42.666;23.264;2023-03-01T07:24:21;94791.53;;;6.65;100.00
6345;BME280;3205;42.666;23.264;2023-03-01T07:26:48;94793.53;;;6.68;100.00
6345;BME280;3205;42.666;23.264;2023-03-01T07:29:14;94791.63;;;6.82;100.00
6345;BME280;3205;42.666;23.264;2023-03-01T07:31:41;94789.28;;;6.94;100.00
6345;BME280;3205;42.666;23.264;2023-03-01T07:34:07;94799.56;;;7.12;100.00
6345;BME280;3205;42.666;23.264;2023-03-01T07:36:33;94794.97;;;7.18;100.00
6345;BME280;3205;42.666;23.264;2023-03-01T07:39:00;94798.22;;;7.15;100.00
6345;BME280;3205;42.666;23.264;2023-03-01T07:41:27;94806.28;;;7.18;100.00
6345;BME280;3205;42.666;23.264;2023-03-01T07:43:56;94804.47;;;7.05;100.00
6345;BME280;3205;42.666;23.264;2023-03-01T07:46:22;94791.63;;;7.26;100.00
6345;BME280;3205;42.666;23.264;2023-03-01T07:48:48;94795.25;;;7.38;100.00
6345;BME280;3205;42.666;23.264;2023-03-01T07:51:14;94804.06;;;7.81;100.00
6345;BME280;3205;42.666;23.264;2023-03-01T07:53:42;94803.31;;;7.80;100.00
6345;BME280;3205;42.666;23.264;2023-03-01T07:56:10;94796.66;;;7.83;100.00
6345;BME280;3205;42.666;23.264;2023-03-01T07:58:37;94790.34;;;7.92;100.00
6345;BME280;3205;42.666;23.264;2023-03-01T08:01:05;94794.31;;;7.73;100.00
6345;BME280;3205;42.666;23.264;2023-03-01T08:03:32;94793.69;;;7.76;100.00
6345;BME280;3205;42.666;23.264;2023-03-01T08:05:59;94792.50;;;7.90;100.00
6345;BME280;3205;42.666;23.264;2023-03-01T08:08:25;94790.13;;;7.72;100.00
6345;BME280;3205;42.666;23.264;2023-03-01T08:10:52;94793.22;;;7.74;100.00
6345;BME280;3205;42.666;23.264;2023-03-01T08:13:18;94785.50;;;7.77;100.00
6345;BME280;3205;42.666;23.264;2023-03-01T08:15:47;94800.69;;;7.89;100.00
6345;BME280;3205;42.666;23.264;2023-03-01T08:18:14;94793.22;;;7.74;100.00
6345;BME280;3205;42.666;23.264;2023-03-01T08:20:40;94796.88;;;8.03;100.00
6345;BME280;3205;42.666;23.264;2023-03-01T08:23:06;94803.75;;;8.21;100.00
6345;BME280;3205;42.666;23.264;2023-03-01T08:25:32;94799.59;;;7.81;100.00
6345;BME280;3205;42.666;23.264;2023-03-01T08:27:59;94807.25;;;8.00;100.00
6345;BME280;3205;42.666;23.264;2023-03-01T08:30:25;94802.25;;;7.81;100.00
6345;BME280;3205;42.666;23.264;2023-03-01T08:32:51;94821.72;;;7.80;100.00
6345;BME280;3205;42.666;23.264;2023-03-01T08:35:18;94794.50;;;7.46;100.00
6345;BME280;3205;42.666;23.264;2023-03-01T08:37:44;94801.78;;;7.49;100.00
6345;BME280;3205;42.666;23.264;2023-03-01T08:40:12;94803.47;;;7.75;100.00
6345;BME280;3205;42.666;23.264;2023-03-01T08:42:39;94797.06;;;8.07;100.00
6345;BME280;3205;42.666;23.264;2023-03-01T08:45:07;94805.06;;;7.93;100.00
6345;BME280;3205;42.666;23.264;2023-03-01T08:47:33;94808.00;;;7.92;100.00
6345;BME280;3205;42.666;23.264;2023-03-01T08:50:00;94799.63;;;8.37;100.00
6345;BME280;3205;42.666;23.264;2023-03-01T08:52:26;94802.09;;;8.84;100.00
6345;BME280;3205;42.666;23.264;2023-03-01T08:54:53;94810.94;;;8.80;100.00
6345;BME280;3205;42.666;23.264;2023-03-01T08:57:19;94817.59;;;8.43;100.00
6345;BME280;3205;42.666;23.264;2023-03-01T08:59:45;94815.94;;;8.81;100.00
6345;BME280;3205;42.666;23.264;2023-03-01T09:02:14;94810.78;;;8.93;100.00
6345;BME280;3205;42.666;23.264;2023-03-01T09:04:41;94816.97;;;8.63;100.00
6345;BME280;3205;42.666;23.264;2023-03-01T09:07:08;94813.44;;;8.85;100.00
6345;BME280;3205;42.666;23.264;2023-03-01T09:09:35;94806.94;;;8.90;100.00
6345;BME280;3205;42.666;23.264;2023-03-01T09:12:01;94812.19;;;8.65;100.00
6345;BME280;3205;42.666;23.264;2023-03-01T09:14:27;94811.88;;;8.92;100.00
6345;BME280;3205;42.666;23.264;2023-03-01T09:16:54;94821.50;;;8.71;100.00
6345;BME280;3205;42.666;23.264;2023-03-01T09:19:21;94819.59;;;8.38;100.00
6345;BME280;3205;42.666;23.264;2023-03-01T09:21:47;94806.03;;;8.14;100.00
6345;BME280;3205;42.666;23.264;2023-03-01T09:24:19;94810.00;;;8.42;100.00
6345;BME280;3205;42.666;23.264;2023-03-01T09:26:45;94800.06;;;8.22;100.00
6345;BME280;3205;42.666;23.264;2023-03-01T09:29:12;94803.50;;;8.39;100.00
6345;BME280;3205;42.666;23.264;2023-03-01T09:31:40;94803.03;;;8.46;100.00
6345;BME280;3205;42.666;23.264;2023-03-01T09:34:07;94797.44;;;8.22;100.00
6345;BME280;3205;42.666;23.264;2023-03-01T09:36:34;94807.88;;;8.05;100.00
6345;BME280;3205;42.666;23.264;2023-03-01T09:39:01;94799.22;;;8.13;100.00
6345;BME280;3205;42.666;23.264;2023-03-01T09:41:47;94794.44;;;8.07;100.00
6345;BME280;3205;42.666;23.264;2023-03-01T09:44:27;94785.41;;;7.99;100.00
6345;BME280;3205;42.666;23.264;2023-03-01T09:46:57;94789.41;;;8.52;100.00
6345;BME280;3205;42.666;23.264;2023-03-01T09:49:28;94788.63;;;8.35;100.00
6345;BME280;3205;42.666;23.264;2023-03-01T09:52:00;94788.47;;;8.57;100.00
6345;BME280;3205;42.666;23.264;2023-03-01T09:54:27;94786.31;;;8.67;100.00
6345;BME280;3205;42.666;23.264;2023-03-01T09:57:11;94791.53;;;8.25;100.00
6345;BME280;3205;42.666;23.264;2023-03-01T09:59:53;94773.53;;;8.10;100.00
6345;BME280;3205;42.666;23.264;2023-03-01T10:02:27;94773.97;;;8.04;100.00
6345;BME280;3205;42.666;23.264;2023-03-01T10:04:56;94772.41;;;8.11;100.00
6345;BME280;3205;42.666;23.264;2023-03-01T10:07:36;94760.72;;;8.34;100.00
6345;BME280;3205;42.666;23.264;2023-03-01T10:10:06;94757.59;;;8.32;100.00
6345;BME280;3205;42.666;23.264;2023-03-01T10:12:35;94758.88;;;8.60;100.00
6345;BME280;3205;42.666;23.264;2023-03-01T10:15:06;94760.41;;;8.52;100.00
6345;BME280;3205;42.666;23.264;2023-03-01T10:17:37;94765.22;;;8.50;100.00
6345;BME280;3205;42.666;23.264;2023-03-01T10:20:17;94760.41;;;8.78;100.00
6345;BME280;3205;42.666;23.264;2023-03-01T10:22:46;94765.38;;;8.54;100.00
6345;BME280;3205;42.666;23.264;2023-03-01T10:25:17;94768.00;;;8.45;100.00
6345;BME280;3205;42.666;23.264;2023-03-01T10:27:51;94754.38;;;8.26;100.00
6345;BME280;3205;42.666;23.264;2023-03-01T10:30:21;94765.22;;;8.76;100.00
6345;BME280;3205;42.666;23.264;2023-03-01T10:32:49;94755.59;;;8.88;100.00
6345;BME280;3205;42.666;23.264;2023-03-01T10:35:18;94746.31;;;8.74;100.00
6345;BME280;3205;42.666;23.264;2023-03-01T10:37:59;94753.44;;;8.82;100.00
6345;BME280;3205;42.666;23.264;2023-03-01T10:40:28;94746.78;;;8.76;100.00
6345;BME280;3205;42.666;23.264;2023-03-01T10:42:57;94757.16;;;8.81;100.00
6345;BME280;3205;42.666;23.264;2023-03-01T10:45:31;94753.03;;;9.17;100.00
6345;BME280;3205;42.666;23.264;2023-03-01T10:48:06;94765.22;;;8.67;100.00
6345;BME280;3205;42.666;23.264;2023-03-01T10:50:36;94753.09;;;8.24;100.00
6345;BME280;3205;42.666;23.264;2023-03-01T10:53:04;94749.56;;;8.45;100.00
6345;BME280;3205;42.666;23.264;2023-03-01T10:55:34;94736.22;;;8.59;100.00
6345;BME280;3205;42.666;23.264;2023-03-01T10:58:16;94741.47;;;8.92;100.00
6345;BME280;3205;42.666;23.264;2023-03-01T11:00:48;94758.97;;;8.97;100.00
6345;BME280;3205;42.666;23.264;2023-03-01T11:03:19;94757.63;;;8.74;100.00
6345;BME280;3205;42.666;23.264;2023-03-01T11:05:56;94752.06;;;8.33;100.00
6345;BME280;3205;42.666;23.264;2023-03-01T11:08:43;94758.41;;;8.58;100.00
6345;BME280;3205;42.666;23.264;2023-03-01T11:11:26;94757.94;;;8.56;100.00
6345;BME280;3205;42.666;23.264;2023-03-01T11:13:57;94747.41;;;8.56;100.00
6345;BME280;3205;42.666;23.264;2023-03-01T11:16:26;94756.22;;;8.26;100.00
6345;BME280;3205;42.666;23.264;2023-03-01T11:18:58;94739.81;;;8.20;100.00
6345;BME280;3205;42.666;23.264;2023-03-01T11:21:25;94748.50;;;8.55;100.00
6345;BME280;3205;42.666;23.264;2023-03-01T11:23:54;94733.44;;;8.47;100.00
6345;BME280;3205;42.666;23.264;2023-03-01T11:26:21;94741.38;;;8.30;100.00
6345;BME280;3205;42.666;23.264;2023-03-01T11:28:50;94738.88;;;8.42;100.00
6345;BME280;3205;42.666;23.264;2023-03-01T11:31:18;94734.38;;;8.68;100.00
6345;BME280;3205;42.666;23.264;2023-03-01T11:33:47;94748.63;;;8.41;100.00
6345;BME280;3205;42.666;23.264;2023-03-01T11:36:19;94736.66;;;8.10;100.00
6345;BME280;3205;42.666;23.264;2023-03-01T11:38:50;94736.31;;;7.86;100.00
6345;BME280;3205;42.666;23.264;2023-03-01T11:41:19;94720.19;;;7.88;100.00
6345;BME280;3205;42.666;23.264;2023-03-01T11:43:51;94715.13;;;8.08;100.00
6345;BME280;3205;42.666;23.264;2023-03-01T11:46:33;94720.25;;;8.21;100.00
6345;BME280;3205;42.666;23.264;2023-03-01T11:49:16;94707.84;;;8.05;100.00
6345;BME280;3205;42.666;23.264;2023-03-01T11:51:51;94702.13;;;8.11;100.00
6345;BME280;3205;42.666;23.264;2023-03-01T11:54:34;94697.81;;;8.15;100.00
6345;BME280;3205;42.666;23.264;2023-03-01T11:57:13;94699.34;;;8.25;100.00
6345;BME280;3205;42.666;23.264;2023-03-01T12:00:02;94704.94;;;8.15;100.00
6345;BME280;3205;42.666;23.264;2023-03-01T12:03:14;94695.78;;;8.12;100.00
6345;BME280;3205;42.666;23.264;2023-03-01T12:05:55;94689.91;;;8.15;100.00
6345;BME280;3205;42.666;23.264;2023-03-01T12:08:33;94691.00;;;8.31;100.00
6345;BME280;3205;42.666;23.264;2023-03-01T12:11:08;94695.03;;;8.20;100.00
6345;BME280;3205;42.666;23.264;2023-03-01T12:13:57;94685.28;;;8.46;100.00
6345;BME280;3205;42.666;23.264;2023-03-01T12:16:40;94691.59;;;8.71;100.00
6345;BME280;3205;42.666;23.264;2023-03-01T12:19:27;94683.31;;;8.89;100.00
6345;BME280;3205;42.666;23.264;2023-03-01T12:22:21;94686.97;;;9.22;100.00
6345;BME280;3205;42.666;23.264;2023-03-01T12:25:15;94683.03;;;9.36;100.00
6345;BME280;3205;42.666;23.264;2023-03-01T12:28:00;94679.09;;;9.05;100.00
6345;BME280;3205;42.666;23.264;2023-03-01T12:30:38;94687.88;;;9.26;100.00
6345;BME280;3205;42.666;23.264;2023-03-01T12:33:17;94682.50;;;9.43;100.00
6345;BME280;3205;42.666;23.264;2023-03-01T12:36:20;94669.59;;;9.50;100.00
6345;BME280;3205;42.666;23.264;2023-03-01T12:38:59;94669.66;;;9.90;100.00
6345;BME280;3205;42.666;23.264;2023-03-01T12:41:43;94671.66;;;9.73;100.00
6345;BME280;3205;42.666;23.264;2023-03-01T12:44:25;94684.16;;;9.27;100.00
6345;BME280;3205;42.666;23.264;2023-03-01T12:47:07;94677.09;;;9.39;100.00
6345;BME280;3205;42.666;23.264;2023-03-01T12:49:40;94669.91;;;9.11;100.00
6345;BME280;3205;42.666;23.264;2023-03-01T12:52:11;94666.69;;;9.43;100.00
6345;BME280;3205;42.666;23.264;2023-03-01T12:54:39;94684.03;;;9.52;100.00
6345;BME280;3205;42.666;23.264;2023-03-01T12:57:17;94673.22;;;9.37;100.00
6345;BME280;3205;42.666;23.264;2023-03-01T12:59:56;94672.38;;;9.53;100.00
6345;BME280;3205;42.666;23.264;2023-03-01T13:02:30;94677.31;;;9.83;100.00
6345;BME280;3205;42.666;23.264;2023-03-01T13:05:16;94689.59;;;9.59;100.00
6345;BME280;3205;42.666;23.264;2023-03-01T13:07:52;94683.91;;;9.40;100.00
6345;BME280;3205;42.666;23.264;2023-03-01T13:10:24;94688.81;;;9.21;100.00
6345;BME280;3205;42.666;23.264;2023-03-01T13:13:01;94684.47;;;9.54;100.00
6345;BME280;3205;42.666;23.264;2023-03-01T13:15:33;94677.56;;;9.41;100.00
6345;BME280;3205;42.666;23.264;2023-03-01T13:18:02;94677.50;;;9.58;100.00
6345;BME280;3205;42.666;23.264;2023-03-01T13:20:34;94673.66;;;9.76;100.00
6345;BME280;3205;42.666;23.264;2023-03-01T13:23:13;94662.66;;;9.94;100.00